Time;durP1;ratioP1;P1;durP2;ratioP2;P2;SDS_P1;SDS_P2;PMS_P1;PMS_P2;Temp;Humidity;BMP_temperature;BMP_pressure;BME280_temperature;BME280_humidity;BME280_pressure;Samples;Min_cycle;Max_cycle;Signal;HPM_P1;HPM_P2
2021/08/28 00:00:15;;;;;;;4.82;1.98;;;;;;;;;;4966244;28;20011;-83
2021/08/28 00:02:40;;;;;;;5.03;1.95;;;;;;;;;;4954787;28;20027;-84
2021/08/28 00:05:06;;;;;;;4.90;2.30;;;;;;;;;;4957270;28;20031;-84
2021/08/28 00:07:31;;;;;;;5.30;2.00;;;;;;;;;;4973596;28;21214;-84
2021/08/28 00:09:56;;;;;;;3.43;1.80;;;;;;;;;;4969487;28;20023;-85
2021/08/28 00:12:22;;;;;;;3.47;1.85;;;;;;;;;;4964343;28;20022;-83
2021/08/28 00:14:47;;;;;;;3.25;1.70;;;;;;;;;;4958640;28;20054;-83
2021/08/28 00:17:12;;;;;;;2.70;2.03;;;;;;;;;;4965652;28;20027;-83
2021/08/28 00:19:38;;;;;;;3.38;1.95;;;;;;;;;;4970202;28;20020;-83
2021/08/28 00:22:03;;;;;;;4.18;2.03;;;;;;;;;;4973240;28;20086;-84
2021/08/28 00:24:29;;;;;;;2.90;1.75;;;;;;;;;;4973116;28;20126;-83
2021/08/28 00:26:54;;;;;;;6.28;2.08;;;;;;;;;;4956346;28;20082;-83
2021/08/28 00:29:19;;;;;;;5.40;3.00;;;;;;;;;;4967118;28;20106;-86
2021/08/28 00:31:45;;;;;;;4.27;2.33;;;;;;;;;;4955043;28;20055;-84
2021/08/28 00:34:10;;;;;;;5.35;1.92;;;;;;;;;;4959123;28;20594;-84
2021/08/28 00:36:35;;;;;;;6.55;2.70;;;;;;;;;;4939277;29;20023;-83
2021/08/28 00:39:00;;;;;;;4.10;2.17;;;;;;;;;;4937246;29;20016;-84
2021/08/28 00:41:26;;;;;;;7.83;3.07;;;;;;;;;;4958876;28;20042;-84
2021/08/28 00:43:51;;;;;;;5.47;2.13;;;;;;;;;;4964821;28;20274;-85
2021/08/28 00:46:16;;;;;;;2.53;2.03;;;;;;;;;;4954161;28;20490;-84
2021/08/28 00:48:41;;;;;;;7.72;2.80;;;;;;;;;;4954322;28;20134;-84
2021/08/28 00:51:10;;;;;;;7.10;2.23;;;;;;;;;;4953486;28;20053;-84
2021/08/28 00:53:36;;;;;;;5.28;2.10;;;;;;;;;;4952432;28;20484;-83
2021/08/28 00:56:01;;;;;;;5.10;2.20;;;;;;;;;;4953932;28;20047;-83
2021/08/28 00:58:26;;;;;;;5.73;2.77;;;;;;;;;;4954085;28;20263;-84
2021/08/28 01:00:56;;;;;;;4.60;2.00;;;;;;;;;;4954405;28;20328;-84
2021/08/28 01:03:26;;;;;;;5.20;2.75;;;;;;;;;;4967466;28;20274;-83
2021/08/28 01:06:00;;;;;;;5.53;2.47;;;;;;;;;;4968004;28;20030;-86
2021/08/28 01:08:42;;;;;;;5.18;2.10;;;;;;;;;;4957447;28;20425;-86
2021/08/28 01:11:11;;;;;;;3.78;2.38;;;;;;;;;;4953671;28;20038;-86
2021/08/28 01:13:37;;;;;;;5.40;2.28;;;;;;;;;;4952929;28;20578;-84
2021/08/28 01:16:03;;;;;;;3.17;1.88;;;;;;;;;;4953413;28;20030;-86
2021/08/28 01:18:28;;;;;;;4.57;1.85;;;;;;;;;;4950862;28;20046;-85
2021/08/28 01:21:01;;;;;;;3.75;2.10;;;;;;;;;;4953567;28;20023;-86
2021/08/28 01:23:29;;;;;;;3.92;2.03;;;;;;;;;;4982298;28;20024;-84
2021/08/28 01:25:56;;;;;;;6.15;2.15;;;;;;;;;;4953464;28;20413;-84
2021/08/28 01:28:23;;;;;;;4.63;2.00;;;;;;;;;;4964845;28;20041;-86
2021/08/28 01:30:48;;;;;;;5.15;2.70;;;;;;;;;;4972554;28;20109;-85
2021/08/28 01:33:15;;;;;;;5.70;2.40;;;;;;;;;;4990948;28;20566;-84
2021/08/28 01:35:42;;;;;;;3.92;2.63;;;;;;;;;;4952801;28;20026;-85
2021/08/28 01:38:08;;;;;;;6.10;2.40;;;;;;;;;;4969408;28;20524;-84
2021/08/28 01:40:34;;;;;;;4.97;2.50;;;;;;;;;;4971347;28;20022;-84
2021/08/28 01:43:00;;;;;;;4.72;2.30;;;;;;;;;;4971360;28;20412;-85
2021/08/28 01:45:26;;;;;;;5.50;2.63;;;;;;;;;;4984912;28;20038;-86
2021/08/28 01:47:52;;;;;;;4.93;2.30;;;;;;;;;;4952798;28;20134;-85
2021/08/28 01:50:18;;;;;;;9.13;2.90;;;;;;;;;;4992885;28;20028;-85
2021/08/28 01:52:44;;;;;;;5.38;2.92;;;;;;;;;;4969245;28;20054;-85
2021/08/28 01:55:09;;;;;;;3.35;2.40;;;;;;;;;;4952683;28;20019;-85
2021/08/28 01:57:35;;;;;;;5.15;2.75;;;;;;;;;;4967386;28;20565;-85
2021/08/28 02:00:01;;;;;;;4.80;2.55;;;;;;;;;;4955484;28;20433;-86
2021/08/28 02:02:26;;;;;;;4.15;2.65;;;;;;;;;;4960789;28;20031;-84
2021/08/28 02:04:51;;;;;;;4.97;2.50;;;;;;;;;;4971253;28;20023;-85
2021/08/28 02:07:20;;;;;;;6.53;2.50;;;;;;;;;;4959696;28;20285;-86
2021/08/28 02:10:12;;;;;;;6.50;2.80;;;;;;;;;;4971254;28;20031;-86
2021/08/28 02:12:38;;;;;;;5.57;2.63;;;;;;;;;;4954309;28;20050;-86
2021/08/28 02:15:08;;;;;;;5.55;2.50;;;;;;;;;;4994457;28;20027;-84
2021/08/28 02:18:00;;;;;;;4.70;2.30;;;;;;;;;;4971308;28;20554;-87
2021/08/28 02:20:27;;;;;;;4.20;2.58;;;;;;;;;;4940872;28;20107;-87
2021/08/28 02:22:56;;;;;;;6.35;2.78;;;;;;;;;;4954998;28;20117;-86
2021/08/28 02:25:28;;;;;;;5.97;2.95;;;;;;;;;;4961709;28;20054;-87
2021/08/28 02:27:57;;;;;;;5.68;3.00;;;;;;;;;;4962348;28;20370;-87
2021/08/28 02:30:22;;;;;;;6.85;3.95;;;;;;;;;;4951166;28;20110;-86
2021/08/28 02:32:50;;;;;;;8.00;3.72;;;;;;;;;;4955640;28;20173;-86
2021/08/28 02:35:15;;;;;;;5.53;3.42;;;;;;;;;;4970630;28;20410;-85
2021/08/28 02:37:42;;;;;;;3.90;3.00;;;;;;;;;;4964555;28;20030;-85
2021/08/28 02:40:08;;;;;;;10.18;5.22;;;;;;;;;;4954456;28;20634;-86
2021/08/28 02:42:34;;;;;;;6.65;4.07;;;;;;;;;;4985159;28;20051;-85
2021/08/28 02:45:01;;;;;;;10.32;5.28;;;;;;;;;;4970943;28;20041;-85
2021/08/28 02:47:26;;;;;;;6.15;3.95;;;;;;;;;;4971323;28;20722;-86
2021/08/28 02:49:52;;;;;;;5.60;3.53;;;;;;;;;;4970610;28;20047;-85
2021/08/28 02:52:19;;;;;;;6.93;3.78;;;;;;;;;;4970313;28;20035;-85
2021/08/28 02:54:45;;;;;;;9.02;4.93;;;;;;;;;;4970841;28;20077;-85
2021/08/28 02:57:11;;;;;;;6.43;3.38;;;;;;;;;;4970820;28;20705;-85
2021/08/28 02:59:37;;;;;;;5.88;3.28;;;;;;;;;;4969533;28;20026;-84
2021/08/28 03:02:02;;;;;;;7.78;4.50;;;;;;;;;;4970603;28;20027;-85
2021/08/28 03:04:28;;;;;;;6.03;3.88;;;;;;;;;;4970823;28;20027;-85
2021/08/28 03:06:53;;;;;;;11.35;6.22;;;;;;;;;;4970089;28;20069;-84
2021/08/28 03:09:19;;;;;;;7.55;5.05;;;;;;;;;;4970623;28;20026;-86
2021/08/28 03:11:44;;;;;;;10.82;5.70;;;;;;;;;;4969705;28;20097;-85
2021/08/28 03:14:10;;;;;;;8.23;6.03;;;;;;;;;;4970140;28;20023;-86
2021/08/28 03:16:37;;;;;;;13.38;6.88;;;;;;;;;;4969957;28;20033;-85
2021/08/28 03:19:02;;;;;;;10.02;6.60;;;;;;;;;;4969713;28;20508;-85
2021/08/28 03:21:28;;;;;;;10.77;6.80;;;;;;;;;;4970286;28;20026;-85
2021/08/28 03:23:56;;;;;;;11.60;8.45;;;;;;;;;;4966661;28;20474;-85
2021/08/28 03:26:22;;;;;;;9.77;7.22;;;;;;;;;;4970010;28;20054;-85
2021/08/28 03:28:47;;;;;;;11.25;8.45;;;;;;;;;;4970655;28;20120;-84
2021/08/28 03:31:13;;;;;;;10.75;9.00;;;;;;;;;;4969629;28;20031;-85
2021/08/28 03:33:38;;;;;;;13.82;8.63;;;;;;;;;;4972247;28;20118;-84
2021/08/28 03:36:04;;;;;;;11.10;8.32;;;;;;;;;;4973976;28;20022;-84
2021/08/28 03:38:29;;;;;;;13.05;9.35;;;;;;;;;;4974147;28;20345;-84
2021/08/28 03:40:55;;;;;;;14.70;9.35;;;;;;;;;;4973993;28;20378;-85
2021/08/28 03:43:20;;;;;;;13.90;8.77;;;;;;;;;;4966705;28;20033;-85
2021/08/28 03:45:48;;;;;;;11.30;8.93;;;;;;;;;;4968700;28;20020;-84
2021/08/28 03:48:13;;;;;;;12.90;9.18;;;;;;;;;;4960126;28;20466;-82
2021/08/28 03:50:38;;;;;;;12.38;10.00;;;;;;;;;;4954581;28;20031;-86
2021/08/28 03:53:03;;;;;;;12.67;11.00;;;;;;;;;;4955201;28;20043;-86
2021/08/28 03:55:29;;;;;;;15.37;10.67;;;;;;;;;;4968994;28;20585;-84
2021/08/28 03:57:54;;;;;;;12.80;10.70;;;;;;;;;;4973426;28;20019;-84
2021/08/28 04:00:19;;;;;;;12.25;10.05;;;;;;;;;;4951517;28;20058;-83
2021/08/28 04:02:44;;;;;;;13.03;10.77;;;;;;;;;;4950540;28;20020;-84
2021/08/28 04:05:10;;;;;;;15.13;11.60;;;;;;;;;;4966193;28;20270;-83
2021/08/28 04:07:39;;;;;;;16.65;12.82;;;;;;;;;;4967039;28;20614;-84
2021/08/28 04:10:05;;;;;;;16.70;11.80;;;;;;;;;;4951084;28;20116;-84
2021/08/28 04:12:30;;;;;;;15.65;12.32;;;;;;;;;;4950112;28;20170;-83
2021/08/28 04:14:55;;;;;;;19.67;13.00;;;;;;;;;;4956066;28;20114;-82
2021/08/28 04:17:21;;;;;;;15.60;11.80;;;;;;;;;;4957297;28;20353;-82
2021/08/28 04:19:46;;;;;;;15.30;11.85;;;;;;;;;;4950976;28;20078;-83
2021/08/28 04:22:11;;;;;;;15.35;12.23;;;;;;;;;;4961712;28;20038;-83
2021/08/28 04:24:37;;;;;;;14.88;13.02;;;;;;;;;;4998336;28;20023;-83
2021/08/28 04:27:03;;;;;;;16.38;14.00;;;;;;;;;;4954154;28;20031;-82
2021/08/28 04:29:29;;;;;;;13.98;11.57;;;;;;;;;;4955186;28;20413;-84
2021/08/28 04:31:54;;;;;;;16.70;12.98;;;;;;;;;;4953301;28;20143;-82
2021/08/28 04:34:20;;;;;;;15.97;11.80;;;;;;;;;;4966337;28;20038;-82
2021/08/28 04:36:45;;;;;;;18.27;13.55;;;;;;;;;;4957483;28;20754;-81
2021/08/28 04:39:10;;;;;;;14.80;11.57;;;;;;;;;;4953332;28;20048;-84
2021/08/28 04:41:36;;;;;;;16.02;12.18;;;;;;;;;;4960161;28;20054;-82
2021/08/28 04:44:01;;;;;;;14.35;11.38;;;;;;;;;;4968050;28;20027;-81
2021/08/28 04:46:26;;;;;;;17.83;11.40;;;;;;;;;;4963478;28;20473;-83
2021/08/28 04:48:52;;;;;;;15.57;11.27;;;;;;;;;;4954533;28;20263;-83
2021/08/28 04:51:17;;;;;;;17.05;13.18;;;;;;;;;;4970943;28;20063;-83
2021/08/28 04:53:43;;;;;;;15.82;12.93;;;;;;;;;;4962402;28;20094;-84
2021/08/28 04:56:08;;;;;;;15.07;11.27;;;;;;;;;;4967222;28;20081;-84
2021/08/28 04:58:33;;;;;;;14.83;13.33;;;;;;;;;;4964488;28;20022;-83
2021/08/28 05:00:58;;;;;;;16.43;12.27;;;;;;;;;;4962165;28;20788;-84
2021/08/28 05:03:25;;;;;;;16.02;13.45;;;;;;;;;;4953958;28;20737;-84
2021/08/28 05:05:54;;;;;;;15.90;13.30;;;;;;;;;;4953771;28;20585;-84
2021/08/28 05:08:19;;;;;;;17.73;13.52;;;;;;;;;;4953746;28;20015;-84
2021/08/28 05:10:44;;;;;;;17.63;12.88;;;;;;;;;;4956926;28;20091;-84
2021/08/28 05:13:09;;;;;;;18.48;14.65;;;;;;;;;;4962626;28;20214;-84
2021/08/28 05:15:35;;;;;;;14.73;12.27;;;;;;;;;;4955439;28;20058;-84
2021/08/28 05:18:00;;;;;;;15.97;12.93;;;;;;;;;;4956920;28;20745;-83
2021/08/28 05:20:25;;;;;;;21.80;15.80;;;;;;;;;;4952472;28;20030;-84
2021/08/28 05:22:51;;;;;;;16.33;13.77;;;;;;;;;;4951521;28;20337;-83
2021/08/28 05:25:16;;;;;;;15.97;12.63;;;;;;;;;;4950265;28;20074;-84
2021/08/28 05:27:41;;;;;;;17.60;14.27;;;;;;;;;;4953662;28;20467;-85
2021/08/28 05:30:07;;;;;;;17.05;13.90;;;;;;;;;;4953693;28;20283;-84
2021/08/28 05:32:32;;;;;;;14.63;12.75;;;;;;;;;;4952379;28;20035;-82
2021/08/28 05:34:57;;;;;;;16.17;14.00;;;;;;;;;;4953127;28;20060;-83
2021/08/28 05:37:23;;;;;;;17.33;14.38;;;;;;;;;;4963128;28;20022;-83
2021/08/28 05:39:48;;;;;;;20.13;14.32;;;;;;;;;;4971930;28;20019;-84
2021/08/28 05:42:14;;;;;;;17.00;14.32;;;;;;;;;;4971406;28;20869;-81
2021/08/28 05:44:39;;;;;;;14.50;12.93;;;;;;;;;;4967976;28;20023;-84
2021/08/28 05:47:04;;;;;;;18.50;13.33;;;;;;;;;;4955123;28;20139;-83
2021/08/28 05:49:29;;;;;;;15.25;12.95;;;;;;;;;;4935516;28;20027;-83
2021/08/28 05:51:55;;;;;;;16.15;12.45;;;;;;;;;;4951736;28;20626;-84
2021/08/28 05:54:20;;;;;;;15.82;12.80;;;;;;;;;;4952817;28;20057;-86
2021/08/28 05:56:45;;;;;;;13.80;12.32;;;;;;;;;;4951854;28;20027;-83
2021/08/28 05:59:10;;;;;;;16.80;13.13;;;;;;;;;;4952465;28;20029;-85
2021/08/28 06:01:38;;;;;;;13.70;11.82;;;;;;;;;;4961255;28;20463;-86
2021/08/28 06:04:04;;;;;;;18.88;12.75;;;;;;;;;;4951137;28;20106;-85
2021/08/28 06:06:29;;;;;;;17.70;12.20;;;;;;;;;;4953057;28;20110;-86
2021/08/28 06:08:54;;;;;;;15.05;11.77;;;;;;;;;;4961491;28;20030;-86
2021/08/28 06:11:23;;;;;;;15.05;11.43;;;;;;;;;;4964378;28;20031;-87
2021/08/28 06:13:49;;;;;;;14.35;11.25;;;;;;;;;;4971071;28;20042;-87
2021/08/28 06:16:14;;;;;;;13.63;11.02;;;;;;;;;;4971226;28;20034;-86
2021/08/28 06:18:39;;;;;;;11.50;9.95;;;;;;;;;;4963065;28;20462;-85
2021/08/28 06:21:05;;;;;;;17.00;10.63;;;;;;;;;;4934975;28;20482;-84
2021/08/28 06:23:30;;;;;;;13.70;11.27;;;;;;;;;;4954676;28;20745;-87
2021/08/28 06:25:55;;;;;;;13.17;9.70;;;;;;;;;;4970925;28;20156;-87
2021/08/28 06:28:20;;;;;;;12.57;9.60;;;;;;;;;;4947921;28;20046;-86
2021/08/28 06:30:46;;;;;;;11.15;9.10;;;;;;;;;;4955025;28;20039;-87
2021/08/28 06:33:11;;;;;;;15.77;11.27;;;;;;;;;;4955323;28;20028;-87
2021/08/28 06:35:37;;;;;;;12.50;9.43;;;;;;;;;;4935369;29;20236;-86
2021/08/28 06:38:02;;;;;;;15.45;10.43;;;;;;;;;;4958538;28;20302;-85
2021/08/28 06:40:27;;;;;;;11.45;9.82;;;;;;;;;;4970888;28;20018;-86
2021/08/28 06:42:53;;;;;;;15.80;10.07;;;;;;;;;;4953838;28;20067;-85
2021/08/28 06:45:18;;;;;;;13.20;9.77;;;;;;;;;;4951480;29;20027;-85
2021/08/28 06:47:43;;;;;;;12.50;9.55;;;;;;;;;;4951930;29;20031;-85
2021/08/28 06:50:09;;;;;;;11.65;8.48;;;;;;;;;;4951352;28;20377;-86
2021/08/28 06:52:37;;;;;;;14.63;10.00;;;;;;;;;;4952601;28;20170;-85
2021/08/28 06:55:03;;;;;;;12.55;9.32;;;;;;;;;;4952148;29;20019;-87
2021/08/28 06:57:29;;;;;;;13.55;9.15;;;;;;;;;;4951400;28;20027;-86
2021/08/28 06:59:54;;;;;;;12.77;9.93;;;;;;;;;;4950544;28;20566;-86
2021/08/28 07:02:23;;;;;;;11.27;9.48;;;;;;;;;;4951271;29;20027;-86
2021/08/28 07:04:48;;;;;;;11.52;9.65;;;;;;;;;;4952354;28;20373;-86
2021/08/28 07:07:14;;;;;;;23.10;9.82;;;;;;;;;;4952161;28;20027;-85
2021/08/28 07:09:54;;;;;;;11.88;9.07;;;;;;;;;;4951887;28;20023;-86
2021/08/28 07:12:20;;;;;;;11.25;8.50;;;;;;;;;;4951540;28;20528;-86
2021/08/28 07:14:51;;;;;;;12.02;9.35;;;;;;;;;;4946790;29;20028;-86
2021/08/28 07:17:22;;;;;;;10.52;8.25;;;;;;;;;;4951910;28;20260;-86
2021/08/28 07:19:48;;;;;;;15.90;8.93;;;;;;;;;;4952096;29;20034;-86
2021/08/28 07:22:30;;;;;;;9.50;7.82;;;;;;;;;;4952419;29;20027;-88
2021/08/28 07:25:13;;;;;;;9.13;7.10;;;;;;;;;;4952706;28;20110;-88
2021/08/28 07:27:39;;;;;;;12.60;6.78;;;;;;;;;;4950693;28;20109;-86
2021/08/28 07:30:05;;;;;;;8.45;6.63;;;;;;;;;;4951668;28;20666;-88
2021/08/28 07:32:36;;;;;;;7.80;5.68;;;;;;;;;;4952154;28;20026;-86
2021/08/28 07:35:04;;;;;;;8.50;5.55;;;;;;;;;;4953135;28;20378;-86
2021/08/28 07:37:39;;;;;;;8.13;4.82;;;;;;;;;;4951483;28;20478;-87
2021/08/28 07:40:05;;;;;;;6.80;5.80;;;;;;;;;;4945048;29;20034;-86
2021/08/28 07:42:30;;;;;;;5.95;4.72;;;;;;;;;;4949567;28;20050;-87
2021/08/28 07:44:56;;;;;;;7.78;5.35;;;;;;;;;;4950075;29;20081;-86
2021/08/28 07:47:26;;;;;;;6.32;4.38;;;;;;;;;;4951280;28;20049;-87
2021/08/28 07:49:54;;;;;;;6.75;4.30;;;;;;;;;;4949036;29;20459;-87
2021/08/28 07:52:19;;;;;;;7.50;4.40;;;;;;;;;;4951699;28;20114;-87
2021/08/28 07:54:45;;;;;;;5.50;3.90;;;;;;;;;;4951652;29;20441;-85
2021/08/28 07:57:11;;;;;;;5.50;3.80;;;;;;;;;;4950832;28;20055;-87
2021/08/28 07:59:36;;;;;;;5.07;3.30;;;;;;;;;;4950358;28;20460;-86
2021/08/28 08:02:02;;;;;;;4.95;3.38;;;;;;;;;;4950516;28;20019;-83
2021/08/28 08:04:27;;;;;;;5.22;3.90;;;;;;;;;;4950753;29;20031;-84
2021/08/28 08:06:53;;;;;;;4.35;3.67;;;;;;;;;;4946181;28;20344;-84
2021/08/28 08:09:18;;;;;;;6.40;4.10;;;;;;;;;;4951048;29;20027;-84
2021/08/28 08:11:44;;;;;;;5.43;3.60;;;;;;;;;;4945601;29;20019;-84
2021/08/28 08:14:09;;;;;;;4.80;3.47;;;;;;;;;;4951518;28;20643;-84
2021/08/28 08:16:35;;;;;;;4.90;3.67;;;;;;;;;;4951651;28;20024;-86
2021/08/28 08:19:00;;;;;;;6.40;3.58;;;;;;;;;;4951980;28;20020;-86
2021/08/28 08:21:25;;;;;;;6.20;3.58;;;;;;;;;;4954234;29;20030;-85
2021/08/28 08:23:51;;;;;;;7.27;3.23;;;;;;;;;;4953751;28;20050;-85
2021/08/28 08:26:16;;;;;;;5.22;3.38;;;;;;;;;;4954166;28;20318;-83
2021/08/28 08:28:41;;;;;;;5.97;3.43;;;;;;;;;;4952168;28;20510;-87
2021/08/28 08:31:07;;;;;;;4.72;3.20;;;;;;;;;;4953747;28;20777;-85
2021/08/28 08:33:32;;;;;;;6.50;3.60;;;;;;;;;;4954362;28;20670;-84
2021/08/28 08:35:58;;;;;;;5.10;3.63;;;;;;;;;;4954591;28;20030;-84
2021/08/28 08:38:23;;;;;;;5.72;3.30;;;;;;;;;;4954598;29;20031;-85
2021/08/28 08:40:48;;;;;;;4.28;2.97;;;;;;;;;;4952445;28;20019;-85
2021/08/28 08:43:14;;;;;;;6.25;3.67;;;;;;;;;;4953605;28;20126;-85
2021/08/28 08:45:40;;;;;;;3.60;3.30;;;;;;;;;;4954224;28;20019;-86
2021/08/28 08:48:06;;;;;;;5.43;3.60;;;;;;;;;;4969339;28;20366;-84
2021/08/28 08:50:32;;;;;;;4.20;3.30;;;;;;;;;;4954870;28;20034;-84
2021/08/28 08:52:59;;;;;;;4.78;2.97;;;;;;;;;;4953957;28;20106;-85
2021/08/28 08:55:25;;;;;;;4.47;3.03;;;;;;;;;;4955476;28;20414;-85
2021/08/28 08:57:51;;;;;;;2.90;2.60;;;;;;;;;;4955126;28;20023;-85
2021/08/28 09:00:16;;;;;;;3.33;2.50;;;;;;;;;;4954939;28;20107;-85
2021/08/28 09:02:42;;;;;;;3.72;2.75;;;;;;;;;;4954030;28;20054;-86
2021/08/28 09:05:07;;;;;;;4.63;2.70;;;;;;;;;;4954741;28;20123;-85
2021/08/28 09:10:50;;;;;;;4.80;2.50;;;;;;;;;;4893752;29;20468;-85
2021/08/28 09:13:30;;;;;;;4.55;2.50;;;;;;;;;;4948281;29;20434;-84
2021/08/28 09:16:27;;;;;;;;;;;;;;;;;;;;;
2021/08/28 09:19:11;;;;;;;4.05;2.35;;;;;;;;;;4951126;29;20390;-85
2021/08/28 09:22:03;;;;;;;5.13;2.40;;;;;;;;;;4951589;29;20094;-84
2021/08/28 09:24:50;;;;;;;3.83;2.30;;;;;;;;;;4953551;28;20486;-84
2021/08/28 09:27:37;;;;;;;3.72;2.33;;;;;;;;;;4953802;28;20033;-84
2021/08/28 09:30:36;;;;;;;2.85;2.15;;;;;;;;;;4951994;28;20031;-85
2021/08/28 09:33:05;;;;;;;3.88;2.15;;;;;;;;;;4953076;28;20058;-85
2021/08/28 09:35:32;;;;;;;3.78;2.15;;;;;;;;;;4953302;28;20031;-85
2021/08/28 09:38:04;;;;;;;3.67;2.22;;;;;;;;;;4937743;28;20422;-85
2021/08/28 09:40:32;;;;;;;2.65;2.05;;;;;;;;;;4952254;28;20449;-84
2021/08/28 09:42:59;;;;;;;3.47;2.15;;;;;;;;;;4963585;28;20065;-85
2021/08/28 09:45:27;;;;;;;2.88;2.05;;;;;;;;;;4972155;28;20393;-83
2021/08/28 09:48:04;;;;;;;2.80;2.47;;;;;;;;;;4936558;29;20024;-84
2021/08/28 09:50:33;;;;;;;3.75;2.78;;;;;;;;;;4935776;28;20059;-84
2021/08/28 09:53:05;;;;;;;3.38;2.20;;;;;;;;;;4959209;28;20078;-84
2021/08/28 09:55:41;;;;;;;2.35;2.00;;;;;;;;;;4952755;28;20345;-84
2021/08/28 09:58:09;;;;;;;3.47;2.55;;;;;;;;;;4953468;28;20446;-83
2021/08/28 10:00:40;;;;;;;4.05;1.95;;;;;;;;;;4952672;28;20540;-83
2021/08/28 10:03:05;;;;;;;2.67;2.30;;;;;;;;;;4952760;28;20395;-84
2021/08/28 10:05:32;;;;;;;3.67;2.03;;;;;;;;;;4953151;28;20020;-83
2021/08/28 10:07:59;;;;;;;4.00;2.00;;;;;;;;;;4952074;28;20154;-84
2021/08/28 10:10:25;;;;;;;2.03;1.50;;;;;;;;;;4952688;28;20050;-84
2021/08/28 10:12:51;;;;;;;1.98;1.70;;;;;;;;;;4952959;28;20061;-84
2021/08/28 10:15:17;;;;;;;7.05;2.30;;;;;;;;;;4966549;28;20031;-84
2021/08/28 10:17:43;;;;;;;3.38;2.10;;;;;;;;;;4960690;28;20442;-85
2021/08/28 10:20:08;;;;;;;2.28;2.08;;;;;;;;;;4956048;28;20058;-84
2021/08/28 10:22:35;;;;;;;4.57;2.00;;;;;;;;;;4961453;28;20027;-85
2021/08/28 10:25:04;;;;;;;2.33;1.75;;;;;;;;;;4952091;28;20023;-84
2021/08/28 10:27:29;;;;;;;4.03;2.13;;;;;;;;;;4958270;28;20380;-84
2021/08/28 10:29:55;;;;;;;4.22;2.55;;;;;;;;;;4965426;28;20130;-84
2021/08/28 10:32:21;;;;;;;2.83;1.88;;;;;;;;;;4951985;28;20106;-84
2021/08/28 10:34:50;;;;;;;3.40;2.20;;;;;;;;;;4951986;28;20023;-84
2021/08/28 10:37:15;;;;;;;2.13;1.75;;;;;;;;;;4969059;28;20042;-84
2021/08/28 10:39:41;;;;;;;2.70;1.60;;;;;;;;;;4966377;28;20023;-84
2021/08/28 10:42:07;;;;;;;2.10;1.90;;;;;;;;;;4961945;28;20054;-83
2021/08/28 10:44:33;;;;;;;3.85;1.85;;;;;;;;;;4970922;28;20035;-83
2021/08/28 10:46:58;;;;;;;2.42;1.75;;;;;;;;;;4952052;28;20474;-84
2021/08/28 10:49:24;;;;;;;1.88;1.45;;;;;;;;;;4952021;28;20027;-84
2021/08/28 10:51:52;;;;;;;4.68;1.73;;;;;;;;;;4951388;28;20029;-87
2021/08/28 10:54:22;;;;;;;2.22;1.63;;;;;;;;;;4961955;28;20597;-84
2021/08/28 10:56:47;;;;;;;;;;;;;;;;;;4959861;28;20502;-86
2021/08/28 10:59:21;;;;;;;4.40;1.83;;;;;;;;;;4955227;28;20013;-86
2021/08/28 11:01:50;;;;;;;1.95;1.50;;;;;;;;;;4965945;28;20487;-85
2021/08/28 11:04:38;;;;;;;2.20;1.48;;;;;;;;;;4969933;28;20366;-84
2021/08/28 11:07:18;;;;;;;3.75;1.77;;;;;;;;;;4968074;28;20054;-84
2021/08/28 11:10:02;;;;;;;4.30;2.17;;;;;;;;;;4970637;28;20201;-86
2021/08/28 11:12:28;;;;;;;2.35;1.92;;;;;;;;;;4971523;28;20389;-86
2021/08/28 11:14:53;;;;;;;2.13;1.80;;;;;;;;;;4990262;28;20015;-86
2021/08/28 11:17:34;;;;;;;3.70;1.40;;;;;;;;;;4956370;28;20023;-83
2021/08/28 11:20:01;;;;;;;2.13;1.10;;;;;;;;;;4970152;28;20382;-83
2021/08/28 11:22:33;;;;;;;1.58;1.45;;;;;;;;;;4970555;28;20814;-85
2021/08/28 11:25:04;;;;;;;2.10;1.20;;;;;;;;;;4966182;28;20663;-84
2021/08/28 11:27:36;;;;;;;1.38;1.15;;;;;;;;;;4993744;28;20046;-85
2021/08/28 11:30:02;;;;;;;1.65;1.30;;;;;;;;;;4970424;28;20418;-85
2021/08/28 11:32:27;;;;;;;1.25;1.15;;;;;;;;;;4993963;28;20035;-84
2021/08/28 11:34:53;;;;;;;1.50;1.20;;;;;;;;;;4991212;28;20131;-85
2021/08/28 11:37:28;;;;;;;2.17;1.80;;;;;;;;;;4957250;28;20694;-85
2021/08/28 11:39:54;;;;;;;3.20;1.33;;;;;;;;;;4951428;28;20031;-84
2021/08/28 11:42:20;;;;;;;3.28;1.23;;;;;;;;;;4954909;28;20476;-84
2021/08/28 11:44:48;;;;;;;1.65;1.25;;;;;;;;;;4951969;28;20110;-85
2021/08/28 11:47:14;;;;;;;1.23;1.10;;;;;;;;;;4951824;28;20745;-85
2021/08/28 11:49:39;;;;;;;1.20;1.10;;;;;;;;;;4955399;28;20102;-85
2021/08/28 11:52:05;;;;;;;1.55;1.20;;;;;;;;;;4951525;28;20031;-84
2021/08/28 11:54:34;;;;;;;1.13;1.00;;;;;;;;;;4954299;28;20019;-84
2021/08/28 11:56:59;;;;;;;3.13;1.15;;;;;;;;;;4969046;28;20274;-84
2021/08/28 11:59:34;;;;;;;2.15;0.93;;;;;;;;;;4965470;28;20034;-83
2021/08/28 12:01:59;;;;;;;1.00;1.00;;;;;;;;;;4951498;28;20568;-84
2021/08/28 12:04:24;;;;;;;2.67;1.30;;;;;;;;;;4955314;28;20027;-84
2021/08/28 12:06:53;;;;;;;1.10;1.00;;;;;;;;;;4960293;28;20030;-85
2021/08/28 12:09:23;;;;;;;1.23;1.13;;;;;;;;;;4956187;28;21007;-85
2021/08/28 12:11:49;;;;;;;2.05;1.30;;;;;;;;;;4940637;28;20457;-85
2021/08/28 12:14:14;;;;;;;1.00;0.98;;;;;;;;;;4955905;28;20019;-84
2021/08/28 12:16:41;;;;;;;1.48;1.13;;;;;;;;;;4961917;28;20023;-85
2021/08/28 12:19:06;;;;;;;2.53;1.10;;;;;;;;;;4961637;28;20023;-84
2021/08/28 12:21:33;;;;;;;1.90;1.47;;;;;;;;;;4963005;28;20105;-84
2021/08/28 12:24:10;;;;;;;2.72;1.20;;;;;;;;;;4973014;28;21029;-85
2021/08/28 12:26:36;;;;;;;1.75;1.27;;;;;;;;;;4966233;28;20578;-84
2021/08/28 12:29:02;;;;;;;1.20;1.10;;;;;;;;;;4973161;28;20082;-85
2021/08/28 12:31:30;;;;;;;2.92;1.55;;;;;;;;;;4960956;28;20114;-84
2021/08/28 12:33:55;;;;;;;2.92;1.30;;;;;;;;;;4972116;28;20434;-83
2021/08/28 12:36:24;;;;;;;1.70;1.30;;;;;;;;;;4958484;28;20027;-83
2021/08/28 12:38:59;;;;;;;1.70;1.55;;;;;;;;;;4954578;28;20394;-84
2021/08/28 12:41:24;;;;;;;4.60;1.50;;;;;;;;;;4956817;28;20473;-84
2021/08/28 12:43:50;;;;;;;1.83;1.67;;;;;;;;;;4973371;28;20065;-85
2021/08/28 12:46:18;;;;;;;2.95;1.60;;;;;;;;;;5004588;28;20023;-85
2021/08/28 12:49:03;;;;;;;1.65;1.52;;;;;;;;;;4973144;28;20426;-85
2021/08/28 12:51:28;;;;;;;1.73;1.20;;;;;;;;;;4955171;28;20374;-85
2021/08/28 12:53:54;;;;;;;1.58;1.30;;;;;;;;;;4961240;28;20027;-85
2021/08/28 12:56:19;;;;;;;1.48;1.33;;;;;;;;;;4964136;28;20023;-85
2021/08/28 12:58:44;;;;;;;3.03;1.60;;;;;;;;;;4998480;28;20470;-85
2021/08/28 13:01:12;;;;;;;1.95;1.75;;;;;;;;;;4967158;28;20251;-84
2021/08/28 13:03:46;;;;;;;1.38;1.27;;;;;;;;;;4955261;28;20652;-84
2021/08/28 13:06:17;;;;;;;5.60;1.90;;;;;;;;;;4960321;28;20248;-84
2021/08/28 13:08:42;;;;;;;3.10;2.00;;;;;;;;;;4948557;28;20382;-84
2021/08/28 13:11:19;;;;;;;1.88;1.60;;;;;;;;;;4953912;28;20019;-85
2021/08/28 13:13:56;;;;;;;2.80;2.08;;;;;;;;;;4965246;28;20031;-85
2021/08/28 13:16:21;;;;;;;1.95;1.75;;;;;;;;;;4963291;28;20648;-84
2021/08/28 13:19:05;;;;;;;1.80;1.35;;;;;;;;;;4973462;28;20027;-84
2021/08/28 13:21:56;;;;;;;2.45;1.23;;;;;;;;;;4972727;28;20385;-84
2021/08/28 13:24:22;;;;;;;1.60;1.50;;;;;;;;;;4968708;28;20419;-86
2021/08/28 13:26:59;;;;;;;2.03;1.23;;;;;;;;;;4967785;28;20114;-87
2021/08/28 13:29:36;;;;;;;1.77;1.40;;;;;;;;;;4971045;28;20454;-87
2021/08/28 13:32:09;;;;;;;2.38;1.65;;;;;;;;;;4954281;28;20650;-85
2021/08/28 13:34:36;;;;;;;2.28;1.90;;;;;;;;;;4964044;28;20382;-85
2021/08/28 13:37:02;;;;;;;2.10;1.90;;;;;;;;;;4972692;28;20747;-85
2021/08/28 13:39:28;;;;;;;2.30;1.90;;;;;;;;;;4967758;28;20027;-86
2021/08/28 13:41:53;;;;;;;2.63;2.10;;;;;;;;;;4965834;28;20047;-85
2021/08/28 13:44:19;;;;;;;4.78;2.53;;;;;;;;;;4957035;28;20053;-85
2021/08/28 13:46:44;;;;;;;3.47;2.43;;;;;;;;;;4961259;28;20098;-86
2021/08/28 13:49:09;;;;;;;2.57;1.80;;;;;;;;;;4953092;28;20266;-86
2021/08/28 13:51:34;;;;;;;2.73;2.27;;;;;;;;;;4953275;28;20345;-86
2021/08/28 13:54:00;;;;;;;1.90;1.67;;;;;;;;;;4966984;28;20058;-85
2021/08/28 13:56:25;;;;;;;2.38;1.70;;;;;;;;;;4965675;28;20047;-86
2021/08/28 13:58:50;;;;;;;3.20;1.90;;;;;;;;;;4953371;28;20022;-87
2021/08/28 14:01:15;;;;;;;3.05;1.23;;;;;;;;;;4986098;28;20267;-86
2021/08/28 14:03:41;;;;;;;3.70;1.58;;;;;;;;;;4984168;28;20114;-86
2021/08/28 14:06:06;;;;;;;2.22;1.63;;;;;;;;;;4963390;28;20050;-87
2021/08/28 14:08:32;;;;;;;1.98;1.50;;;;;;;;;;4962041;28;20026;-86
2021/08/28 14:10:57;;;;;;;2.05;1.55;;;;;;;;;;4952687;28;20038;-85
2021/08/28 14:13:22;;;;;;;2.73;1.70;;;;;;;;;;4955637;28;20019;-86
2021/08/28 14:15:48;;;;;;;3.80;1.50;;;;;;;;;;4963082;28;20283;-87
2021/08/28 14:18:13;;;;;;;3.00;1.50;;;;;;;;;;4952721;28;20741;-86
2021/08/28 14:20:38;;;;;;;2.23;1.73;;;;;;;;;;4951519;28;20019;-85
2021/08/28 14:23:03;;;;;;;1.63;1.33;;;;;;;;;;4966473;28;20255;-85
2021/08/28 14:25:29;;;;;;;1.27;1.17;;;;;;;;;;4969967;28;20335;-85
2021/08/28 14:27:54;;;;;;;1.58;1.45;;;;;;;;;;4953210;28;20664;-86
2021/08/28 14:30:20;;;;;;;2.28;1.38;;;;;;;;;;4963613;28;20034;-85
2021/08/28 14:32:45;;;;;;;2.00;1.55;;;;;;;;;;4968490;28;20026;-87
2021/08/28 14:35:11;;;;;;;2.27;1.67;;;;;;;;;;4952656;28;20023;-86
2021/08/28 14:37:36;;;;;;;1.50;1.30;;;;;;;;;;4959855;28;20297;-86
2021/08/28 14:40:02;;;;;;;2.63;1.38;;;;;;;;;;4970615;28;20538;-86
2021/08/28 14:42:27;;;;;;;2.50;1.65;;;;;;;;;;4970674;28;20057;-85